Milroy, IN (46156)

12:54 AM EDT on September 02, 2014 (GMT -0400)
RMR - Greensburg | Change Station
CLOSE
Current Station
Personal Weather Station
Location: Greensburg, IN
Elevation: 975 ft
Nearby Weather Stations

Elev 975 ft 39.34 °N, 85.49 °W | Updated 7 minutes ago

Clear
Clear
72.5 °F
Feels Like 72.5 °F
N
0.0
Wind Variable Wind from SE
Gusts 1.0 mph

Today
High -- | Low -- °F
--% Chance of Precip.
Yesterday
High -- | Low -- °F
Precip. -- in
7:11 AM 8:11 PM
Waxing Crescent, 47% visible
Pressure 29.91 in
Visibility 8.0 miles
Clouds Clear
Dew Point 71 °F
Humidity 95%
Rainfall 0.00 in
Snow Depth Not available.
UV 0 out of 12
Pollen 10.40 out of 12
Air Quality Not available.
Flu Activity Not available.
METAR KGEZ 020353Z AUTO 19007KT 8SM CLR 23/21 A2993 RMK AO2 SLP129 T02280211

More Conditions Fewer Conditions

Pressure 29.91 in
Visibility 8.0 miles
Clouds Clear
Dew Point 71 °F
Humidity 95%
Rainfall 0.00 in
Snow Depth Not available.
UV 0 out of 12
Pollen 10.40 out of 12
Air Quality Not available.
Flu Activity Not available.
METAR KGEZ 020353Z AUTO 19007KT 8SM CLR 23/21 A2993 RMK AO2 SLP129 T02280211

More Conditions Fewer Conditions

10-Day Weather Forecast

Almanac

Astronomy

Sep. 02, 2014 Rise Set
Actual Time 7:11 AM EDT 8:11 PM EDT
Civil Twilight 6:43 AM EDT 8:38 PM EDT
Nautical Twilight 6:10 AM EDT 9:11 PM EDT
Astronomical Twilight 5:36 AM EDT 9:45 PM EDT
Moon 2:52 PM EDT 12:15 AM EDT
Length of Visible Light 13h 55m
Length of Day
13h 00m
Tomorrow will be 2m 29s shorter.
Waxing Crescent, 47% of the Moon is Illuminated
Today
Waxing Crescent
Sep 2
First Quarter
Sep 8
Full
Sep 15
Last Quarter
Sep 24
New

Today's Extremes

State Highs State Lows

Community

WunderPhotos

Upload Photos

1,749,573 photos uploaded!

WunderBlogs® & News

Nearby

Snow Depth

Station Depth Elevation
No new snow has been reported.

Earthquake Activity

City Distance Mag. Time & Date
No recent earthquake activity has been reported nearby.
Minimum magnitude displayed is 2.5.

Coastal Water Temperatures

Place Temperature
No Stations Reporting

Nearby Weather Stations